createdAt,value
2023-03-31T00:01:53.076Z,101020.34
2023-03-31T00:04:24.333Z,101095.00
2023-03-31T00:06:54.687Z,101080.78
2023-03-31T00:09:22.221Z,101096.56
2023-03-31T00:11:52.401Z,101038.75
2023-03-31T00:14:20.202Z,101082.16
2023-03-31T00:16:47.117Z,101065.44
2023-03-31T00:19:20.807Z,101068.16
2023-03-31T00:21:48.229Z,101052.56
2023-03-31T00:24:15.726Z,101065.16
2023-03-31T00:26:42.853Z,101077.25
2023-03-31T00:29:10.112Z,101032.38
2023-03-31T00:31:39.040Z,101078.72
2023-03-31T00:34:06.423Z,101073.63
2023-03-31T00:36:36.954Z,101082.06
2023-03-31T00:39:09.604Z,101084.66
2023-03-31T00:41:37.783Z,101061.03
2023-03-31T00:44:27.988Z,101050.97
2023-03-31T00:47:08.129Z,101065.31
2023-03-31T00:49:48.738Z,101074.78
2023-03-31T00:52:31.112Z,101064.19
2023-03-31T00:55:00.933Z,101090.06
2023-03-31T00:57:28.651Z,101091.44
2023-03-31T00:59:58.951Z,101050.41
2023-03-31T01:02:25.832Z,101078.41
2023-03-31T01:04:59.429Z,101075.28
2023-03-31T01:07:33.896Z,101084.28
2023-03-31T01:10:01.789Z,101059.06
2023-03-31T01:12:28.711Z,101063.13
2023-03-31T01:14:55.586Z,101079.44
2023-03-31T01:17:22.699Z,101077.16
2023-03-31T01:20:12.776Z,101079.03
2023-03-31T01:22:59.608Z,101060.13
2023-03-31T01:25:34.116Z,101058.75
2023-03-31T01:28:03.727Z,101016.78
2023-03-31T01:30:37.610Z,101016.00
2023-03-31T01:33:36.153Z,101029.47
2023-03-31T01:36:15.297Z,101056.25
2023-03-31T01:39:01.256Z,101068.16
2023-03-31T01:41:35.922Z,101058.63
2023-03-31T01:44:28.944Z,101040.91
2023-03-31T01:47:07.137Z,101040.06
2023-03-31T01:49:41.543Z,101007.31
2023-03-31T01:52:23.323Z,101043.94
2023-03-31T01:54:52.200Z,101048.41
2023-03-31T01:57:35.082Z,101040.72
2023-03-31T02:00:12.735Z,101019.16
2023-03-31T02:02:44.666Z,101031.38
2023-03-31T02:05:13.978Z,101023.25
2023-03-31T02:07:48.297Z,101020.66
2023-03-31T02:10:15.121Z,101030.78
2023-03-31T02:12:42.575Z,101016.16
2023-03-31T02:15:11.789Z,101023.91
2023-03-31T02:17:40.318Z,100992.13
2023-03-31T02:20:11.667Z,100995.91
2023-03-31T02:22:40.419Z,101016.38
2023-03-31T02:25:08.543Z,101007.16
2023-03-31T02:27:40.580Z,101005.41
2023-03-31T02:30:08.218Z,101017.84
2023-03-31T02:32:44.510Z,101014.94
2023-03-31T02:35:13.659Z,100963.47
2023-03-31T02:37:40.414Z,101008.84
2023-03-31T02:40:10.648Z,100994.44
2023-03-31T02:42:38.819Z,100987.44
2023-03-31T02:45:06.837Z,100995.38
2023-03-31T02:47:33.859Z,100989.53
2023-03-31T02:50:00.918Z,100996.72
2023-03-31T02:52:42.932Z,101004.69
2023-03-31T02:55:28.297Z,101006.97
2023-03-31T02:58:01.049Z,101003.84
2023-03-31T03:01:01.444Z,100997.06
2023-03-31T03:03:37.856Z,100991.91
2023-03-31T03:06:32.598Z,100982.94
2023-03-31T03:09:30.218Z,100971.69
2023-03-31T03:12:06.093Z,100986.28
2023-03-31T03:14:45.082Z,100991.09
2023-03-31T03:17:19.018Z,100993.91
2023-03-31T03:19:55.956Z,101006.13
2023-03-31T03:22:23.295Z,101001.94
2023-03-31T03:24:50.099Z,101003.41
2023-03-31T03:27:17.694Z,100990.03
2023-03-31T03:29:44.576Z,100983.03
2023-03-31T03:32:11.453Z,100986.94
2023-03-31T03:34:38.378Z,100981.19
2023-03-31T03:37:05.813Z,100992.66
2023-03-31T03:39:32.646Z,100973.53
2023-03-31T03:41:59.458Z,101003.84
2023-03-31T03:44:26.166Z,101015.78
2023-03-31T03:46:52.933Z,100981.16
2023-03-31T03:49:20.782Z,100967.88
2023-03-31T03:51:47.495Z,101001.06
2023-03-31T03:54:14.356Z,100979.31
2023-03-31T03:56:41.204Z,100993.50
2023-03-31T03:59:07.924Z,101005.44
2023-03-31T04:01:34.731Z,101012.47
2023-03-31T04:04:01.957Z,101008.47
2023-03-31T04:06:28.740Z,101020.84
2023-03-31T04:08:55.571Z,101019.16
2023-03-31T04:11:22.592Z,100968.09
2023-03-31T04:13:49.385Z,101005.63
2023-03-31T04:16:16.994Z,101011.25
2023-03-31T04:18:43.880Z,101015.78
2023-03-31T04:21:12.493Z,100965.69
2023-03-31T04:23:47.126Z,101010.97
2023-03-31T04:26:14.622Z,101010.13
2023-03-31T04:28:42.992Z,101028.50
2023-03-31T04:31:10.375Z,101025.56
2023-03-31T04:33:38.953Z,101020.41
2023-03-31T04:36:18.089Z,100942.72
2023-03-31T04:38:51.155Z,100988.25
2023-03-31T04:41:18.367Z,101005.16
2023-03-31T04:43:45.500Z,101015.91
2023-03-31T04:46:12.300Z,101014.81
2023-03-31T04:48:39.272Z,101038.50
2023-03-31T04:51:06.086Z,101026.16
2023-03-31T04:53:32.840Z,101014.13
2023-03-31T04:55:59.686Z,101005.66
2023-03-31T04:58:26.500Z,101028.56
2023-03-31T05:00:53.512Z,101013.44
2023-03-31T05:03:20.782Z,100985.66
2023-03-31T05:05:47.663Z,101035.47
2023-03-31T05:08:14.410Z,101049.66
2023-03-31T05:10:41.258Z,101055.38
2023-03-31T05:13:10.502Z,101045.81
2023-03-31T05:15:40.785Z,101010.53
2023-03-31T05:18:08.224Z,101020.75
2023-03-31T05:20:35.051Z,101024.19
2023-03-31T05:23:02.151Z,101025.97
2023-03-31T05:25:33.036Z,101060.88
2023-03-31T05:28:00.882Z,101051.22
2023-03-31T05:30:28.139Z,101057.91
2023-03-31T05:32:54.977Z,101053.25
2023-03-31T05:35:21.869Z,101016.88
2023-03-31T05:37:48.702Z,101055.47
2023-03-31T05:40:15.590Z,101082.63
2023-03-31T05:42:42.315Z,101051.41
2023-03-31T05:45:09.570Z,101062.50
2023-03-31T05:47:36.977Z,101057.66
2023-03-31T05:50:07.940Z,101069.16
2023-03-31T05:52:35.445Z,101082.84
2023-03-31T05:55:02.411Z,101086.22
2023-03-31T05:57:29.299Z,101091.31
2023-03-31T05:59:56.305Z,101064.97
2023-03-31T06:02:23.328Z,101059.19
2023-03-31T06:04:50.512Z,101086.47
2023-03-31T06:07:18.040Z,101076.66
2023-03-31T06:09:45.789Z,101044.09
2023-03-31T06:12:12.636Z,101095.56
2023-03-31T06:14:39.492Z,101089.28
2023-03-31T06:17:07.261Z,101080.38
2023-03-31T06:19:34.281Z,101099.19
2023-03-31T06:22:01.724Z,101074.34
2023-03-31T06:24:28.541Z,101106.88
2023-03-31T06:26:55.343Z,101060.78
2023-03-31T06:29:22.310Z,101107.72
2023-03-31T06:31:49.094Z,101097.88
2023-03-31T06:34:16.657Z,101104.34
2023-03-31T06:36:44.589Z,101106.94
2023-03-31T06:39:11.491Z,101110.81
2023-03-31T06:41:39.265Z,101104.72
2023-03-31T06:44:06.384Z,101121.25
2023-03-31T06:46:33.174Z,101119.81
2023-03-31T06:48:59.910Z,101130.47
2023-03-31T06:51:26.841Z,101138.00
2023-03-31T06:53:53.668Z,101136.56
2023-03-31T06:56:20.467Z,101129.88
2023-03-31T06:58:47.325Z,101139.63
2023-03-31T07:01:14.126Z,101147.16
2023-03-31T07:03:41.022Z,101159.56
2023-03-31T07:06:08.083Z,101151.66
2023-03-31T07:08:34.906Z,101156.38
2023-03-31T07:11:01.798Z,101137.25
2023-03-31T07:13:28.771Z,101146.13
2023-03-31T07:15:55.952Z,101139.19
2023-03-31T07:18:26.595Z,101137.50
2023-03-31T07:20:53.434Z,101172.63
2023-03-31T07:23:20.915Z,101160.13
2023-03-31T07:25:47.812Z,101185.88
2023-03-31T07:28:14.662Z,101153.13
2023-03-31T07:30:41.512Z,101190.66
2023-03-31T07:33:08.649Z,101183.50
2023-03-31T07:35:38.934Z,101173.91
2023-03-31T07:38:05.796Z,101190.75
2023-03-31T07:40:32.631Z,101183.34
2023-03-31T07:42:59.469Z,101185.88
2023-03-31T07:45:26.330Z,101183.63
2023-03-31T07:47:53.315Z,101176.50
2023-03-31T07:50:20.699Z,101149.00
2023-03-31T07:52:47.595Z,101158.97
2023-03-31T07:55:14.550Z,101162.94
2023-03-31T07:57:42.448Z,101165.75
2023-03-31T08:00:12.502Z,101121.16
2023-03-31T08:02:41.144Z,101144.56
2023-03-31T08:05:08.319Z,101171.47
2023-03-31T08:07:39.500Z,101091.59
2023-03-31T08:10:07.149Z,101174.13
2023-03-31T08:12:34.089Z,101181.53
2023-03-31T08:15:01.314Z,101098.56
2023-03-31T08:17:28.313Z,101181.41
2023-03-31T08:19:55.296Z,101184.00
2023-03-31T08:22:23.443Z,101178.88
2023-03-31T08:24:50.233Z,101133.97
2023-03-31T08:27:17.288Z,101151.81
2023-03-31T08:29:44.138Z,101157.34
2023-03-31T08:32:11.107Z,101179.91
2023-03-31T08:34:38.306Z,101177.84
2023-03-31T08:37:06.040Z,101176.56
2023-03-31T08:39:34.248Z,101159.13
2023-03-31T08:42:03.337Z,101118.78
2023-03-31T08:44:43.130Z,101171.94
2023-03-31T08:47:13.878Z,101177.72
2023-03-31T08:49:49.365Z,101183.16
2023-03-31T08:52:19.037Z,101180.75
2023-03-31T08:54:49.593Z,101181.00
2023-03-31T08:57:22.382Z,101157.41
2023-03-31T08:59:51.209Z,101183.41
2023-03-31T09:02:32.636Z,101168.94
2023-03-31T09:05:24.287Z,101194.56
2023-03-31T09:08:06.381Z,101195.81
2023-03-31T09:10:38.541Z,101187.56
2023-03-31T09:13:14.345Z,101205.78
2023-03-31T09:15:49.153Z,101194.97
2023-03-31T09:18:35.637Z,101198.13
2023-03-31T09:21:13.012Z,101145.84
2023-03-31T09:23:43.540Z,101185.06
2023-03-31T09:26:19.062Z,101180.47
2023-03-31T09:28:46.299Z,101225.88
2023-03-31T09:31:17.892Z,101196.03
2023-03-31T09:33:48.436Z,101225.66
2023-03-31T09:36:17.567Z,101232.78
2023-03-31T09:38:45.043Z,101211.47
2023-03-31T09:41:12.340Z,101240.53
2023-03-31T09:43:40.146Z,101245.66
2023-03-31T09:46:26.611Z,101220.84
2023-03-31T09:49:24.320Z,101253.72
2023-03-31T09:52:26.651Z,101258.13
2023-03-31T09:54:58.311Z,101259.94
2023-03-31T09:57:31.261Z,101250.72
2023-03-31T10:00:14.729Z,101267.22
2023-03-31T10:02:45.872Z,101278.53
2023-03-31T10:05:26.130Z,101260.97
2023-03-31T10:07:54.750Z,101273.34
2023-03-31T10:10:31.374Z,101253.03
2023-03-31T10:12:58.844Z,101265.91
2023-03-31T10:15:28.931Z,101261.47
2023-03-31T10:17:56.001Z,101272.88
2023-03-31T10:20:38.423Z,101277.56
2023-03-31T10:23:15.751Z,101269.22
2023-03-31T10:25:42.663Z,101259.16
2023-03-31T10:28:14.036Z,101271.72
2023-03-31T10:30:42.131Z,101255.63
2023-03-31T10:33:22.003Z,101239.28
2023-03-31T10:35:51.234Z,101269.09
2023-03-31T10:38:25.295Z,101231.72
2023-03-31T10:40:55.979Z,101151.28
2023-03-31T10:43:47.867Z,101271.94
2023-03-31T10:46:14.715Z,101241.69
2023-03-31T10:48:42.344Z,101258.00
2023-03-31T10:51:41.150Z,101267.78
2023-03-31T10:54:09.067Z,101282.13
2023-03-31T10:56:50.784Z,101267.19
2023-03-31T10:59:52.169Z,101268.31
2023-03-31T11:02:37.489Z,101266.91
2023-03-31T11:05:22.672Z,101270.19
2023-03-31T11:08:05.343Z,101183.06
2023-03-31T11:10:35.102Z,101266.13
2023-03-31T11:13:23.728Z,101251.00
2023-03-31T11:15:59.538Z,101260.97
2023-03-31T11:19:05.343Z,101251.97
2023-03-31T11:21:51.426Z,101253.09
2023-03-31T11:24:33.991Z,101223.84
2023-03-31T11:27:03.554Z,101267.56
2023-03-31T11:29:38.418Z,101255.38
2023-03-31T11:32:25.926Z,101257.03
2023-03-31T11:34:58.782Z,101251.19
2023-03-31T11:37:47.765Z,101261.06
2023-03-31T11:40:17.179Z,101268.41
2023-03-31T11:42:51.271Z,101262.41
2023-03-31T11:45:44.351Z,101256.56
2023-03-31T11:48:17.225Z,101161.25
2023-03-31T11:50:44.185Z,101266.31
2023-03-31T11:53:17.808Z,101258.63
2023-03-31T11:55:45.879Z,101261.50
2023-03-31T11:58:19.045Z,101227.25
2023-03-31T12:00:52.858Z,101261.84
2023-03-31T12:03:41.561Z,101262.16
2023-03-31T12:06:17.759Z,101244.09
2023-03-31T12:09:05.801Z,101262.63
2023-03-31T12:11:38.582Z,101236.16
2023-03-31T12:14:29.880Z,101247.72
2023-03-31T12:17:04.816Z,101185.91
2023-03-31T12:19:43.782Z,101243.59
2023-03-31T12:22:12.231Z,101259.38
2023-03-31T12:24:39.105Z,101250.47
2023-03-31T12:27:15.004Z,101252.25
2023-03-31T12:30:01.758Z,101256.69
2023-03-31T12:32:43.671Z,101221.88
2023-03-31T12:35:16.778Z,101256.50
2023-03-31T12:38:28.318Z,101244.16
2023-03-31T12:41:10.188Z,101252.94
2023-03-31T12:44:01.199Z,101245.91
2023-03-31T12:46:36.979Z,101249.69
2023-03-31T12:49:03.826Z,101260.75
2023-03-31T12:51:33.132Z,101257.69
2023-03-31T12:54:08.629Z,101255.09
2023-03-31T12:57:00.708Z,101252.13
2023-03-31T12:59:44.023Z,101211.81
2023-03-31T13:02:16.694Z,101262.91
2023-03-31T13:04:43.931Z,101264.31
2023-03-31T13:07:34.457Z,101242.19
2023-03-31T13:10:19.959Z,101257.28
2023-03-31T13:13:12.356Z,101220.59
2023-03-31T13:15:39.258Z,101253.34
2023-03-31T13:18:07.257Z,101229.22
2023-03-31T13:20:42.341Z,101227.09
2023-03-31T13:23:12.133Z,101260.81
2023-03-31T13:25:39.057Z,101257.97
2023-03-31T13:28:14.319Z,101259.81
2023-03-31T13:30:41.557Z,101259.50
2023-03-31T13:33:18.338Z,101257.28
2023-03-31T13:35:47.963Z,101246.25
2023-03-31T13:38:30.634Z,101243.38
2023-03-31T13:41:18.520Z,101243.31
2023-03-31T13:43:48.920Z,101245.94
2023-03-31T13:46:26.605Z,101199.31
2023-03-31T13:49:16.364Z,101231.22
2023-03-31T13:51:47.386Z,101239.50
2023-03-31T13:54:47.553Z,101245.16
2023-03-31T13:57:40.039Z,101239.84
2023-03-31T14:00:28.834Z,101231.34
2023-03-31T14:03:20.751Z,101225.00
2023-03-31T14:05:57.098Z,101230.53
2023-03-31T14:08:42.564Z,101230.22
2023-03-31T14:11:16.019Z,101235.19
2023-03-31T14:13:42.825Z,101233.16
2023-03-31T14:16:09.839Z,101224.84
2023-03-31T14:18:38.764Z,101219.44
2023-03-31T14:21:18.092Z,101225.25
2023-03-31T14:24:05.254Z,101152.31
2023-03-31T14:26:31.966Z,101227.50
2023-03-31T14:29:13.992Z,101229.16
2023-03-31T14:31:48.890Z,101235.81
2023-03-31T14:34:34.810Z,101229.06
2023-03-31T14:37:04.730Z,101233.50
2023-03-31T14:39:33.207Z,101208.94
2023-03-31T14:42:03.051Z,101194.94
2023-03-31T14:44:30.113Z,101225.66
2023-03-31T14:46:58.589Z,101207.19
2023-03-31T14:49:25.636Z,101240.47
2023-03-31T14:51:53.319Z,101201.09
2023-03-31T14:54:21.267Z,101224.69
2023-03-31T14:56:53.264Z,101230.88
2023-03-31T14:59:30.618Z,101228.22
2023-03-31T15:01:58.514Z,101216.34
2023-03-31T15:04:39.634Z,101220.38
2023-03-31T15:07:09.074Z,101207.69
2023-03-31T15:09:36.578Z,101230.94
2023-03-31T15:12:05.513Z,101204.03
2023-03-31T15:14:34.686Z,101221.53
2023-03-31T15:17:01.841Z,101222.31
2023-03-31T15:19:35.413Z,101212.78
2023-03-31T15:22:08.365Z,101204.94
2023-03-31T15:24:35.256Z,101182.69
2023-03-31T15:27:36.607Z,101213.81
2023-03-31T15:30:08.462Z,101181.69
2023-03-31T15:32:36.954Z,101217.94
2023-03-31T15:35:18.727Z,101210.22
2023-03-31T15:37:48.366Z,101212.03
2023-03-31T15:40:22.092Z,101181.28
2023-03-31T15:43:01.699Z,101209.47
2023-03-31T15:45:53.586Z,101168.97
2023-03-31T15:48:29.912Z,101195.38
2023-03-31T15:51:20.914Z,101179.69
2023-03-31T15:53:51.142Z,101196.56
2023-03-31T15:56:42.109Z,101203.34
2023-03-31T15:59:27.486Z,101207.66
2023-03-31T16:02:00.043Z,101185.19
2023-03-31T16:04:36.034Z,101211.75
2023-03-31T16:07:05.672Z,101209.22
2023-03-31T16:09:52.624Z,101215.72
2023-03-31T16:12:39.134Z,101215.97
2023-03-31T16:15:16.080Z,101217.84
2023-03-31T16:18:06.823Z,101211.16
2023-03-31T16:20:37.526Z,101194.94
2023-03-31T16:23:16.001Z,101218.69
2023-03-31T16:25:42.993Z,101210.44
2023-03-31T16:28:13.139Z,101225.50
2023-03-31T16:30:41.632Z,101237.13
2023-03-31T16:33:12.959Z,101219.25
2023-03-31T16:35:41.921Z,101218.63
2023-03-31T16:38:10.637Z,101223.13
2023-03-31T16:40:42.030Z,101192.38
2023-03-31T16:43:21.777Z,101233.69
2023-03-31T16:45:50.065Z,101187.06
2023-03-31T16:48:17.874Z,101240.72
2023-03-31T16:50:49.272Z,101234.13
2023-03-31T16:53:17.447Z,101236.13
2023-03-31T16:55:44.229Z,101239.50
2023-03-31T16:58:11.586Z,101231.09
2023-03-31T17:00:40.256Z,101234.97
2023-03-31T17:03:08.283Z,101207.03
2023-03-31T17:05:56.323Z,101218.75
2023-03-31T17:08:26.455Z,101151.78
2023-03-31T17:10:55.553Z,101234.69
2023-03-31T17:13:22.376Z,101235.31
2023-03-31T17:15:49.631Z,101234.78
2023-03-31T17:18:17.695Z,101245.38
2023-03-31T17:20:44.756Z,101243.47
2023-03-31T17:23:12.064Z,101239.78
2023-03-31T17:25:38.905Z,101235.88
2023-03-31T17:28:05.948Z,101197.56
2023-03-31T17:30:35.206Z,101249.66
2023-03-31T17:33:02.024Z,101243.59
2023-03-31T17:35:28.927Z,101225.59
2023-03-31T17:37:55.755Z,101242.88
2023-03-31T17:40:26.913Z,101212.22
2023-03-31T17:42:54.829Z,101234.06
2023-03-31T17:45:21.831Z,101236.06
2023-03-31T17:47:48.814Z,101229.97
2023-03-31T17:50:15.836Z,101239.16
2023-03-31T17:52:43.187Z,101199.16
2023-03-31T17:55:10.288Z,101221.47
2023-03-31T17:57:37.414Z,101220.94
2023-03-31T18:00:06.130Z,101172.38
2023-03-31T18:02:33.402Z,101237.22
2023-03-31T18:05:00.857Z,101234.50
2023-03-31T18:07:28.502Z,101227.47
2023-03-31T18:09:55.482Z,101246.78
2023-03-31T18:12:22.299Z,101243.44
2023-03-31T18:14:49.682Z,101172.56
2023-03-31T18:17:16.848Z,101239.59
2023-03-31T18:19:43.612Z,101252.97
2023-03-31T18:22:10.865Z,101217.09
2023-03-31T18:24:38.774Z,101225.78
2023-03-31T18:27:05.745Z,101261.22
2023-03-31T18:29:32.670Z,101248.06
2023-03-31T18:31:59.908Z,101259.22
2023-03-31T18:34:26.852Z,101236.56
2023-03-31T18:36:54.011Z,101261.34
2023-03-31T18:39:20.927Z,101248.91
2023-03-31T18:41:48.100Z,101266.66
2023-03-31T18:44:17.490Z,101256.47
2023-03-31T18:46:45.131Z,101253.34
2023-03-31T18:49:12.158Z,101248.00
2023-03-31T18:51:38.889Z,101249.44
2023-03-31T18:54:05.929Z,101223.31
2023-03-31T18:56:33.034Z,101266.44
2023-03-31T18:58:59.771Z,101233.44
2023-03-31T19:01:27.430Z,101268.41
2023-03-31T19:03:54.352Z,101264.75
2023-03-31T19:06:22.523Z,101270.41
2023-03-31T19:08:49.526Z,101276.66
2023-03-31T19:11:17.032Z,101234.09
2023-03-31T19:13:44.085Z,101236.16
2023-03-31T19:16:11.924Z,101262.59
2023-03-31T19:18:38.769Z,101237.00
2023-03-31T19:21:05.603Z,101274.19
2023-03-31T19:23:33.192Z,101270.59
2023-03-31T19:26:00.600Z,101281.81
2023-03-31T19:28:27.853Z,101240.09
2023-03-31T19:30:56.532Z,101272.81
2023-03-31T19:33:23.897Z,101257.75
2023-03-31T19:35:51.170Z,101264.59
2023-03-31T19:38:19.060Z,101248.72
2023-03-31T19:40:45.838Z,101206.28
2023-03-31T19:43:19.497Z,101249.88
2023-03-31T19:45:50.264Z,101209.00
2023-03-31T19:48:17.656Z,101251.00
2023-03-31T19:50:51.453Z,101247.66
2023-03-31T19:53:18.729Z,101262.28
2023-03-31T19:55:53.923Z,101257.28
2023-03-31T19:58:20.867Z,101250.69
2023-03-31T20:00:47.636Z,101268.06
2023-03-31T20:03:14.749Z,101256.88
2023-03-31T20:05:41.611Z,101263.06
2023-03-31T20:08:08.515Z,101270.97
2023-03-31T20:10:35.403Z,101283.91
2023-03-31T20:13:03.105Z,101265.69
2023-03-31T20:15:30.049Z,101279.97
2023-03-31T20:17:57.252Z,101281.91
2023-03-31T20:20:25.066Z,101273.91
2023-03-31T20:22:51.812Z,101259.94
2023-03-31T20:25:18.649Z,101296.38
2023-03-31T20:27:45.849Z,101287.69
2023-03-31T20:30:12.772Z,101300.69
2023-03-31T20:32:40.066Z,101178.16
2023-03-31T20:35:07.240Z,101304.66
2023-03-31T20:37:34.280Z,101298.91
2023-03-31T20:40:01.254Z,101310.66
2023-03-31T20:42:28.100Z,101311.25
2023-03-31T20:44:54.998Z,101272.59
2023-03-31T20:47:22.144Z,101303.88
2023-03-31T20:49:49.390Z,101303.09
2023-03-31T20:52:16.141Z,101322.41
2023-03-31T20:54:42.993Z,101325.78
2023-03-31T20:57:11.683Z,101295.78
2023-03-31T20:59:38.713Z,101318.38
2023-03-31T21:02:06.389Z,101320.63
2023-03-31T21:04:33.213Z,101335.53
2023-03-31T21:06:59.978Z,101218.78
2023-03-31T21:09:26.902Z,101319.53
2023-03-31T21:11:53.777Z,101333.56
2023-03-31T21:14:20.624Z,101299.38
2023-03-31T21:16:47.566Z,101278.63
2023-03-31T21:19:14.362Z,101305.31
2023-03-31T21:21:41.922Z,101331.88
2023-03-31T21:24:10.242Z,101316.53
2023-03-31T21:26:37.065Z,101334.50
2023-03-31T21:29:03.961Z,101333.44
2023-03-31T21:31:31.356Z,101255.88
2023-03-31T21:34:01.462Z,101328.28
2023-03-31T21:36:29.403Z,101165.75
2023-03-31T21:38:57.610Z,101324.31
2023-03-31T21:41:26.225Z,101288.53
2023-03-31T21:43:53.650Z,101330.53
2023-03-31T21:46:26.316Z,101306.78
2023-03-31T21:48:53.831Z,101321.97
2023-03-31T21:51:22.265Z,101283.84
2023-03-31T21:53:49.945Z,101323.81
2023-03-31T21:56:17.124Z,101329.19
2023-03-31T21:58:43.924Z,101325.53
2023-03-31T22:01:10.953Z,101332.03
2023-03-31T22:03:38.641Z,101339.91
2023-03-31T22:06:08.304Z,101284.19
2023-03-31T22:08:36.844Z,101328.09
2023-03-31T22:11:04.262Z,101307.03
2023-03-31T22:13:31.053Z,101283.78
2023-03-31T22:16:00.217Z,101312.31
2023-03-31T22:18:27.598Z,101320.78
2023-03-31T22:20:54.440Z,101315.22
2023-03-31T22:23:21.807Z,101311.78
2023-03-31T22:25:49.493Z,101222.00
2023-03-31T22:28:16.843Z,101323.34
2023-03-31T22:30:44.249Z,101277.19
2023-03-31T22:33:11.117Z,101333.78
2023-03-31T22:35:38.098Z,101332.34
2023-03-31T22:38:06.388Z,101324.97
2023-03-31T22:40:34.710Z,101297.88
2023-03-31T22:43:01.700Z,101290.81
2023-03-31T22:45:28.843Z,101292.47
2023-03-31T22:47:56.656Z,101237.66
2023-03-31T22:50:24.022Z,101266.59
2023-03-31T22:52:51.113Z,101285.59
2023-03-31T22:55:17.949Z,101276.22
2023-03-31T22:57:44.957Z,101274.78
2023-03-31T23:00:13.038Z,101272.50
2023-03-31T23:02:40.128Z,101260.75
2023-03-31T23:05:07.196Z,101285.69
2023-03-31T23:07:34.146Z,101291.03
2023-03-31T23:10:01.145Z,101294.69
2023-03-31T23:12:28.194Z,101294.16
2023-03-31T23:14:55.000Z,101290.00
2023-03-31T23:17:21.835Z,101315.72
2023-03-31T23:19:48.798Z,101302.25
2023-03-31T23:22:15.906Z,101299.13
2023-03-31T23:24:42.786Z,101301.00
2023-03-31T23:27:09.611Z,101266.84
2023-03-31T23:29:36.731Z,101287.47
2023-03-31T23:32:06.465Z,101286.31
2023-03-31T23:34:33.063Z,101297.31
2023-03-31T23:36:59.870Z,101316.19
2023-03-31T23:39:26.715Z,101319.31
2023-03-31T23:41:54.127Z,101305.66
2023-03-31T23:44:21.268Z,101322.72
2023-03-31T23:46:48.271Z,101296.19
2023-03-31T23:49:15.107Z,101322.03
2023-03-31T23:51:41.990Z,101337.75
2023-03-31T23:54:08.949Z,101347.34
2023-03-31T23:56:35.902Z,101331.03
2023-03-31T23:59:02.709Z,101318.06
